Country
Station

 

Weather  for  Columbia, Columbia Owens Downtown Airport  -  United States    United States

  
24 °C (75 °F)
    
 
 

Current METAR for Columbia, Columbia Owens Downtown Airport is :

KCUB 171119Z AUTO 00000KT 10SM BKN008 24/23 A3001 RMK AO2 T02390228

 

This is a report for Columbia, Columbia Owens Downtown Airport - United States.
 
The report was made 17 minutes ago, at 11:19 UTC .
The wind was calm.
 
The temperature was 24 °C (75 °F), with a dew-point at 23 °C (73 °F).
The temperature felt like 23 °C (73 °F).
 
The atmospheric pressure was 1016 hPa (30.01 inHg).
The relative humidity was 94.2%.
 
There were broken clouds at a height of 244 meters (800 feet).
 
The overall visibility was 16.1 kilometers (10.0 miles).
 

 
 
 
 

Country :   A   B   C   D   E   F   G   H   I   J   K   L   M   N   O   P   Q   R   S   T   U   V   W   Y   Z

 

Site Info  |  Disclaimer  |  Credits  |  Privacy
Contact us  |  Add to favorites
© 2013-2018 METARs - All rights reserved